首页
METAR-TAF:

METAR-TAF

机场 :

德累斯顿机场

德累斯顿, 德国

纬度: 51-08N, 经度: 013-45E, 海拔: 230米

当前天气观测

该预报发布于40分钟前的09:20 UTC
风速10节,风向南转南东
温度 9°C
湿度 81%
气压 1010 hPa
能见度10公里或以上
1500米以下无云,无积雨云

METAR: EDDC 220920Z 16010KT CAVOK 09/06 Q1010 NOSIG

时间: 11:00 (10:00 UTC)

预报

该预报发布于5小时和0分钟前的05:00 UTC
预报有效从22日的 06点(UTC)到 23日的 06点(UTC)
风速8节,风向东南
能见度10公里或以上
多云层高于4000英尺

TAF: EDDC 220500Z 2206/2306 13008KT 9999 BKN040

超过4000个机场的气象观测和天气预报(METAR&TAF报告)。

可查询的气象台以黄色和红色小点在地图上表示。

将鼠标移到小点上方,可查看气象台名称。

然后点击查看天气观测和预报。

如需切换地图:点击带黑十字的绿色按钮放大地图;点击带横线的绿色按钮缩小地图;或者点击绿色箭头查看邻近地区的地图。


METAR-TAF: